createdAt,value
2022-10-04T00:00:29.867Z,4.88
2022-10-04T00:03:36.871Z,4.22
2022-10-04T00:06:17.247Z,4.00
2022-10-04T00:08:51.156Z,4.97
2022-10-04T00:11:21.294Z,4.47
2022-10-04T00:13:58.870Z,4.18
2022-10-04T00:16:39.521Z,4.50
2022-10-04T00:19:15.243Z,4.32
2022-10-04T00:21:53.819Z,5.00
2022-10-04T00:24:28.028Z,4.85
2022-10-04T00:27:22.930Z,5.32
2022-10-04T00:30:23.618Z,3.20
2022-10-04T00:33:04.414Z,3.60
2022-10-04T00:35:36.960Z,4.07
2022-10-04T00:38:14.981Z,3.83
2022-10-04T00:41:11.690Z,5.05
2022-10-04T00:43:47.314Z,5.10
2022-10-04T00:46:27.808Z,3.38
2022-10-04T00:49:06.274Z,4.28
2022-10-04T00:51:42.632Z,4.43
2022-10-04T00:54:50.266Z,4.80
2022-10-04T00:57:23.751Z,5.60
2022-10-04T01:00:03.756Z,4.45
2022-10-04T01:02:39.216Z,4.65
2022-10-04T01:05:11.258Z,4.60
2022-10-04T01:08:00.844Z,5.37
2022-10-04T01:10:43.461Z,5.63
2022-10-04T01:13:39.208Z,6.03
2022-10-04T01:16:18.881Z,6.03
2022-10-04T01:18:49.213Z,6.78
2022-10-04T01:21:19.789Z,6.88
2022-10-04T01:23:59.806Z,6.40
2022-10-04T01:26:30.111Z,5.80
2022-10-04T01:31:33.752Z,5.60
2022-10-04T01:34:02.290Z,4.35
2022-10-04T01:36:29.692Z,4.55
2022-10-04T01:38:59.847Z,4.43
2022-10-04T01:41:36.611Z,4.22
2022-10-04T01:44:05.405Z,4.97
2022-10-04T01:46:36.303Z,5.60
2022-10-04T01:49:10.133Z,4.82
2022-10-04T01:51:47.985Z,5.88
2022-10-04T01:54:26.672Z,5.70
2022-10-04T01:57:03.753Z,6.70
2022-10-04T01:59:48.415Z,5.10
2022-10-04T02:04:55.720Z,4.75
2022-10-04T02:07:31.034Z,6.20
2022-10-04T02:10:02.841Z,4.88
2022-10-04T02:12:31.582Z,4.10
2022-10-04T02:15:04.230Z,5.97
2022-10-04T02:17:38.165Z,4.90
2022-10-04T02:20:19.888Z,5.60
2022-10-04T02:22:59.248Z,6.10
2022-10-04T02:25:26.899Z,5.22
2022-10-04T02:27:56.463Z,4.35
2022-10-04T02:30:24.610Z,5.32
2022-10-04T02:32:58.237Z,4.72
2022-10-04T02:35:37.130Z,5.20
2022-10-04T02:38:18.394Z,4.63
2022-10-04T02:41:00.594Z,3.87
2022-10-04T02:43:47.642Z,4.15
2022-10-04T02:46:24.282Z,3.95
2022-10-04T02:49:02.046Z,4.47
2022-10-04T02:51:40.768Z,4.47
2022-10-04T02:54:44.290Z,5.05
2022-10-04T02:57:32.667Z,4.22
2022-10-04T03:00:23.486Z,4.53
2022-10-04T03:03:23.534Z,4.57
2022-10-04T03:06:04.637Z,4.57
2022-10-04T03:08:43.954Z,4.45
2022-10-04T03:11:20.951Z,3.40
2022-10-04T03:13:54.981Z,4.03
2022-10-04T03:16:22.483Z,3.28
2022-10-04T03:18:51.506Z,3.08
2022-10-04T03:21:25.473Z,3.40
2022-10-04T03:23:53.677Z,2.75
2022-10-04T03:26:46.218Z,3.85
2022-10-04T03:29:16.277Z,3.50
2022-10-04T03:31:51.590Z,4.40
2022-10-04T03:34:24.493Z,3.67
2022-10-04T03:36:56.285Z,3.97
2022-10-04T03:39:35.284Z,3.20
2022-10-04T03:42:15.772Z,3.70
2022-10-04T03:44:51.542Z,4.25
2022-10-04T03:47:24.470Z,3.08
2022-10-04T03:49:55.409Z,4.45
2022-10-04T03:52:32.926Z,2.97
2022-10-04T03:55:06.790Z,3.40
2022-10-04T03:57:36.718Z,3.33
2022-10-04T04:00:07.403Z,3.65
2022-10-04T04:02:45.978Z,3.40
2022-10-04T04:06:03.124Z,2.97
2022-10-04T04:08:41.827Z,4.22
2022-10-04T04:11:23.079Z,5.15
2022-10-04T04:14:04.142Z,4.20
2022-10-04T04:16:32.231Z,3.50
2022-10-04T04:19:05.218Z,4.90
2022-10-04T04:21:36.257Z,5.10
2022-10-04T04:24:32.923Z,5.13
2022-10-04T04:27:05.248Z,4.28
2022-10-04T04:29:41.296Z,4.47
2022-10-04T04:32:40.201Z,4.38
2022-10-04T04:35:33.374Z,4.75
2022-10-04T04:38:25.050Z,4.38
2022-10-04T04:40:55.740Z,4.97
2022-10-04T04:43:27.597Z,3.95
2022-10-04T04:46:22.403Z,3.90
2022-10-04T04:48:49.107Z,4.13
2022-10-04T04:51:23.802Z,5.82
2022-10-04T04:53:55.189Z,4.00
2022-10-04T04:56:28.926Z,5.22
2022-10-04T04:59:02.470Z,5.18
2022-10-04T05:01:34.930Z,5.32
2022-10-04T05:04:14.176Z,5.63
2022-10-04T05:07:04.870Z,6.63
2022-10-04T05:09:38.503Z,5.63
2022-10-04T05:12:23.745Z,5.38
2022-10-04T05:14:53.594Z,5.38
2022-10-04T05:17:27.661Z,6.22
2022-10-04T05:19:58.666Z,5.90
2022-10-04T05:22:27.498Z,5.00
2022-10-04T05:25:09.112Z,6.18
2022-10-04T05:27:39.851Z,6.47
2022-10-04T05:30:25.228Z,5.65
2022-10-04T05:33:10.546Z,7.07
2022-10-04T05:36:22.077Z,6.93
2022-10-04T05:39:12.243Z,6.30
2022-10-04T05:42:08.708Z,7.05
2022-10-04T05:44:44.769Z,7.97
2022-10-04T05:47:16.313Z,5.85
2022-10-04T05:49:46.527Z,8.23
2022-10-04T05:52:45.062Z,6.88
2022-10-04T05:55:53.574Z,6.07
2022-10-04T05:58:58.483Z,7.72
2022-10-04T06:01:49.124Z,6.38
2022-10-04T06:04:48.899Z,8.90
2022-10-04T06:07:40.954Z,6.78
2022-10-04T06:10:41.001Z,6.97
2022-10-04T06:13:32.563Z,7.30
2022-10-04T06:16:35.464Z,6.07
2022-10-04T06:19:24.051Z,6.35
2022-10-04T06:22:19.242Z,5.45
2022-10-04T06:25:06.066Z,6.47
2022-10-04T06:27:49.202Z,5.70
2022-10-04T06:30:20.681Z,5.43
2022-10-04T06:33:02.547Z,5.82
2022-10-04T06:35:39.902Z,5.23
2022-10-04T06:38:22.220Z,4.88
2022-10-04T06:41:00.144Z,6.45
2022-10-04T06:43:58.084Z,4.50
2022-10-04T06:46:42.482Z,6.00
2022-10-04T06:49:28.537Z,4.60
2022-10-04T06:52:28.522Z,5.10
2022-10-04T06:55:05.857Z,4.80
2022-10-04T06:57:45.243Z,4.63
2022-10-04T07:00:23.424Z,4.60
2022-10-04T07:03:24.188Z,5.57
2022-10-04T07:06:05.172Z,5.75
2022-10-04T07:08:50.062Z,5.53
2022-10-04T07:11:46.009Z,5.15
2022-10-04T07:14:24.413Z,5.78
2022-10-04T07:17:12.401Z,4.82
2022-10-04T07:19:48.223Z,4.35
2022-10-04T07:22:35.630Z,4.72
2022-10-04T07:25:28.052Z,4.85
2022-10-04T07:28:28.656Z,4.30
2022-10-04T07:31:03.723Z,4.00
2022-10-04T07:33:44.829Z,4.28
2022-10-04T07:36:21.978Z,5.90
2022-10-04T07:39:01.854Z,4.80
2022-10-04T07:41:35.355Z,4.53
2022-10-04T07:44:34.903Z,3.85
2022-10-04T07:47:27.914Z,4.10
2022-10-04T07:50:00.703Z,5.50
2022-10-04T07:52:53.831Z,4.35
2022-10-04T07:55:52.847Z,4.90
2022-10-04T07:58:26.274Z,4.78
2022-10-04T08:01:19.834Z,4.75
2022-10-04T08:04:02.557Z,7.57
2022-10-04T08:06:41.310Z,5.43
2022-10-04T08:09:23.362Z,5.30
2022-10-04T08:12:30.023Z,5.05
2022-10-04T08:15:28.288Z,5.38
2022-10-04T08:18:07.560Z,6.15
2022-10-04T08:20:52.345Z,5.15
2022-10-04T08:23:41.817Z,4.75
2022-10-04T08:26:29.895Z,4.30
2022-10-04T08:29:40.029Z,5.35
2022-10-04T08:32:42.836Z,4.55
2022-10-04T08:35:29.322Z,4.82
2022-10-04T08:38:29.364Z,5.20
2022-10-04T08:41:06.397Z,5.47
2022-10-04T08:43:43.158Z,5.22
2022-10-04T08:47:03.370Z,5.05
2022-10-04T08:49:38.457Z,5.78
2022-10-04T08:52:08.217Z,5.43
2022-10-04T08:55:01.596Z,5.00
2022-10-04T08:57:43.950Z,5.30
2022-10-04T09:00:35.375Z,5.70
2022-10-04T09:03:26.815Z,5.20
2022-10-04T09:06:32.454Z,4.40
2022-10-04T09:09:18.010Z,4.95
2022-10-04T09:12:20.099Z,6.40
2022-10-04T09:14:56.555Z,5.38
2022-10-04T09:18:08.869Z,5.35
2022-10-04T09:21:11.401Z,4.93
2022-10-04T09:23:55.284Z,5.10
2022-10-04T09:26:45.385Z,5.63
2022-10-04T09:29:47.086Z,5.65
2022-10-04T09:32:30.737Z,4.78
2022-10-04T09:35:25.093Z,5.70
2022-10-04T09:38:28.366Z,4.70
2022-10-04T09:41:07.371Z,6.30
2022-10-04T09:43:34.788Z,4.00
2022-10-04T09:46:12.482Z,4.82
2022-10-04T09:49:10.130Z,2.92
2022-10-04T09:52:06.023Z,3.40
2022-10-04T09:54:56.750Z,3.53
2022-10-04T09:57:43.703Z,3.72
2022-10-04T10:00:24.871Z,3.17
2022-10-04T10:03:17.524Z,3.08
2022-10-04T10:06:14.235Z,3.70
2022-10-04T10:09:01.997Z,3.15
2022-10-04T10:12:07.044Z,3.90
2022-10-04T10:14:34.154Z,3.53
2022-10-04T10:17:22.527Z,4.35
2022-10-04T10:20:03.722Z,3.92
2022-10-04T10:23:07.960Z,4.40
2022-10-04T10:26:13.176Z,3.92
2022-10-04T10:29:19.899Z,2.50
2022-10-04T10:32:04.583Z,3.05
2022-10-04T10:34:58.969Z,3.53
2022-10-04T10:37:53.636Z,2.92
2022-10-04T10:40:30.920Z,3.28
2022-10-04T10:43:09.164Z,2.50
2022-10-04T10:46:19.064Z,2.30
2022-10-04T10:49:04.671Z,1.90
2022-10-04T10:54:57.953Z,2.60
2022-10-04T10:57:56.022Z,2.65
2022-10-04T11:00:50.382Z,2.20
2022-10-04T11:03:40.525Z,2.30
2022-10-04T11:06:19.990Z,1.63
2022-10-04T11:09:27.211Z,2.78
2022-10-04T11:12:16.384Z,1.80
2022-10-04T11:15:31.891Z,1.65
2022-10-04T11:18:09.835Z,1.73
2022-10-04T11:20:59.324Z,1.88
2022-10-04T11:24:00.834Z,1.67
2022-10-04T11:27:02.063Z,3.03
2022-10-04T11:29:32.264Z,2.67
2022-10-04T11:32:01.724Z,1.77
2022-10-04T11:34:50.867Z,1.85
2022-10-04T11:37:36.424Z,1.92
2022-10-04T11:40:14.961Z,2.13
2022-10-04T11:43:10.588Z,1.20
2022-10-04T11:46:08.541Z,2.13
2022-10-04T11:49:17.328Z,1.35
2022-10-04T11:52:04.656Z,1.40
2022-10-04T11:54:53.306Z,1.35
2022-10-04T11:57:55.767Z,3.20
2022-10-04T12:00:33.820Z,1.15
2022-10-04T12:03:29.001Z,0.90
2022-10-04T12:06:35.732Z,3.97
2022-10-04T12:09:14.722Z,1.25
2022-10-04T12:12:34.079Z,1.40
2022-10-04T12:15:04.246Z,1.48
2022-10-04T12:17:58.634Z,1.30
2022-10-04T12:20:38.778Z,1.63
2022-10-04T12:23:29.107Z,1.42
2022-10-04T12:26:32.044Z,1.58
2022-10-04T12:29:31.252Z,1.35
2022-10-04T12:32:32.691Z,1.23
2022-10-04T12:35:05.916Z,1.58
2022-10-04T12:37:53.272Z,1.70
2022-10-04T12:40:43.883Z,1.73
2022-10-04T12:43:17.038Z,2.08
2022-10-04T12:46:04.606Z,1.33
2022-10-04T12:48:55.913Z,2.17
2022-10-04T12:51:50.884Z,1.20
2022-10-04T12:54:38.373Z,1.38
2022-10-04T12:57:32.353Z,1.20
2022-10-04T13:00:22.795Z,1.35
2022-10-04T13:03:13.559Z,1.30
2022-10-04T13:05:46.160Z,1.42
2022-10-04T13:08:41.394Z,1.48
2022-10-04T13:11:29.137Z,1.48
2022-10-04T13:13:59.666Z,1.40
2022-10-04T13:19:58.072Z,1.90
2022-10-04T13:23:02.570Z,1.50
2022-10-04T13:26:07.674Z,1.45
2022-10-04T13:29:02.804Z,1.48
2022-10-04T13:32:05.268Z,2.13
2022-10-04T13:34:39.645Z,1.67
2022-10-04T13:37:15.774Z,1.83
2022-10-04T13:40:07.675Z,1.83
2022-10-04T13:42:48.841Z,1.80
2022-10-04T13:45:35.544Z,1.83
2022-10-04T13:48:29.681Z,2.05
2022-10-04T13:51:28.406Z,1.60
2022-10-04T13:54:25.939Z,2.40
2022-10-04T13:57:07.114Z,1.70
2022-10-04T13:59:59.774Z,1.10
2022-10-04T14:02:32.598Z,2.05
2022-10-04T14:05:20.851Z,2.25
2022-10-04T14:08:17.947Z,1.90
2022-10-04T14:11:07.762Z,1.65
2022-10-04T14:13:55.685Z,1.83
2022-10-04T14:16:56.174Z,2.65
2022-10-04T14:19:41.175Z,2.00
2022-10-04T14:23:00.581Z,2.15
2022-10-04T14:25:49.157Z,2.22
2022-10-04T14:28:49.608Z,1.88
2022-10-04T14:31:36.845Z,1.65
2022-10-04T14:34:29.528Z,2.50
2022-10-04T14:37:32.635Z,1.83
2022-10-04T14:40:09.679Z,2.25
2022-10-04T14:42:49.174Z,2.20
2022-10-04T14:45:24.507Z,2.20
2022-10-04T14:48:15.934Z,2.10
2022-10-04T14:51:11.674Z,2.55
2022-10-04T14:54:08.304Z,2.42
2022-10-04T14:57:05.214Z,1.17
2022-10-04T14:59:37.974Z,1.55
2022-10-04T15:02:11.110Z,1.95
2022-10-04T15:04:51.317Z,1.63
2022-10-04T15:07:32.565Z,2.00
2022-10-04T15:10:37.803Z,2.28
2022-10-04T15:13:20.200Z,2.05
2022-10-04T15:16:24.497Z,1.83
2022-10-04T15:19:13.116Z,2.40
2022-10-04T15:22:07.036Z,1.90
2022-10-04T15:24:42.641Z,2.28
2022-10-04T15:27:33.686Z,2.35
2022-10-04T15:30:22.058Z,1.88
2022-10-04T15:33:18.019Z,2.10
2022-10-04T15:35:57.629Z,2.30
2022-10-04T15:38:39.178Z,2.00
2022-10-04T15:41:27.323Z,1.98
2022-10-04T15:44:13.987Z,2.03
2022-10-04T15:47:05.030Z,2.92
2022-10-04T15:50:01.238Z,2.25
2022-10-04T15:52:37.437Z,2.30
2022-10-04T15:55:10.699Z,2.50
2022-10-04T15:57:41.437Z,2.33
2022-10-04T16:00:13.876Z,2.92
2022-10-04T16:02:48.690Z,3.38
2022-10-04T16:05:19.529Z,2.45
2022-10-04T16:08:09.161Z,3.17
2022-10-04T16:10:58.561Z,2.13
2022-10-04T16:13:40.519Z,3.08
2022-10-04T16:16:41.723Z,2.60
2022-10-04T16:19:40.342Z,2.25
2022-10-04T16:22:16.043Z,2.45
2022-10-04T16:24:53.255Z,3.20
2022-10-04T16:30:27.418Z,2.70
2022-10-04T16:33:12.287Z,2.90
2022-10-04T16:35:49.187Z,2.95
2022-10-04T16:38:28.835Z,3.38
2022-10-04T16:41:08.111Z,3.13
2022-10-04T16:43:48.693Z,4.38
2022-10-04T16:46:15.998Z,4.22
2022-10-04T16:48:57.518Z,4.43
2022-10-04T16:51:52.350Z,4.50
2022-10-04T16:54:58.837Z,4.70
2022-10-04T16:57:34.208Z,4.35
2022-10-04T17:00:36.081Z,4.90
2022-10-04T17:03:17.424Z,6.40
2022-10-04T17:05:54.215Z,6.47
2022-10-04T17:08:43.130Z,7.88
2022-10-04T17:11:35.777Z,11.32
2022-10-04T17:14:29.725Z,6.15
2022-10-04T17:17:03.357Z,6.55
2022-10-04T17:19:52.491Z,5.75
2022-10-04T17:22:42.199Z,6.72
2022-10-04T17:25:32.756Z,8.27
2022-10-04T17:28:21.041Z,6.78
2022-10-04T17:31:15.618Z,6.55
2022-10-04T17:33:54.724Z,6.70
2022-10-04T17:36:45.007Z,5.60
2022-10-04T17:39:28.222Z,5.85
2022-10-04T17:42:26.292Z,6.20
2022-10-04T17:45:23.621Z,6.18
2022-10-04T17:48:32.183Z,6.15
2022-10-04T17:51:29.748Z,6.13
2022-10-04T17:54:34.221Z,6.25
2022-10-04T17:57:04.105Z,6.50
2022-10-04T17:59:42.457Z,6.38
2022-10-04T18:02:17.242Z,8.02
2022-10-04T18:04:58.804Z,7.50
2022-10-04T18:07:32.063Z,7.43
2022-10-04T18:10:22.281Z,6.60
2022-10-04T18:13:19.013Z,8.10
2022-10-04T18:16:19.479Z,9.02
2022-10-04T18:18:47.498Z,7.63
2022-10-04T18:21:15.320Z,7.20
2022-10-04T18:24:05.267Z,7.90
2022-10-04T18:26:35.055Z,8.02
2022-10-04T18:29:08.897Z,7.55
2022-10-04T18:31:40.063Z,8.00
2022-10-04T18:34:40.259Z,7.30
2022-10-04T18:37:27.283Z,6.70
2022-10-04T18:40:02.568Z,6.18
2022-10-04T18:42:38.256Z,7.15
2022-10-04T18:45:29.068Z,6.88
2022-10-04T18:48:18.365Z,6.03
2022-10-04T18:50:47.180Z,6.90
2022-10-04T18:53:26.247Z,6.70
2022-10-04T18:55:59.680Z,7.03
2022-10-04T18:59:11.590Z,7.55
2022-10-04T19:02:11.241Z,8.00
2022-10-04T19:04:58.344Z,8.00
2022-10-04T19:07:53.814Z,10.48
2022-10-04T19:10:26.449Z,18.33
2022-10-04T19:13:18.409Z,15.75
2022-10-04T19:16:06.903Z,13.40
2022-10-04T19:18:45.264Z,13.85
2022-10-04T19:21:47.076Z,15.30
2022-10-04T19:24:27.868Z,16.02
2022-10-04T19:27:05.946Z,15.93
2022-10-04T19:30:04.569Z,17.50
2022-10-04T19:32:47.345Z,15.25
2022-10-04T19:35:28.483Z,15.63
2022-10-04T19:38:07.979Z,16.15
2022-10-04T19:40:48.554Z,13.02
2022-10-04T19:43:54.191Z,15.85
2022-10-04T19:46:44.044Z,37.30
2022-10-04T19:49:18.028Z,14.88
2022-10-04T19:51:54.479Z,14.48
2022-10-04T19:54:31.323Z,16.60
2022-10-04T19:57:20.578Z,16.17
2022-10-04T19:59:48.430Z,16.15
2022-10-04T20:02:19.224Z,15.80
2022-10-04T20:04:50.104Z,18.40
2022-10-04T20:07:26.495Z,14.88
2022-10-04T20:10:33.761Z,15.27
2022-10-04T20:13:25.399Z,14.18
2022-10-04T20:16:00.571Z,16.17
2022-10-04T20:18:34.443Z,14.57
2022-10-04T20:21:03.804Z,13.52
2022-10-04T20:23:42.390Z,13.93
2022-10-04T20:26:56.848Z,14.52
2022-10-04T20:29:52.593Z,14.13
2022-10-04T20:32:36.314Z,14.63
2022-10-04T20:35:14.064Z,15.88
2022-10-04T20:37:47.664Z,15.40
2022-10-04T20:40:26.543Z,17.02
2022-10-04T20:43:15.746Z,15.98
2022-10-04T20:45:48.281Z,18.60
2022-10-04T20:48:31.383Z,16.08
2022-10-04T20:51:10.855Z,18.63
2022-10-04T20:53:46.846Z,18.58
2022-10-04T20:56:17.296Z,17.85
2022-10-04T20:58:53.853Z,20.15
2022-10-04T21:01:37.306Z,19.17
2022-10-04T21:04:42.295Z,20.88
2022-10-04T21:07:12.598Z,19.48
2022-10-04T21:09:42.424Z,21.83
2022-10-04T21:12:34.339Z,20.52
2022-10-04T21:15:13.239Z,20.35
2022-10-04T21:17:40.335Z,25.23
2022-10-04T21:20:15.809Z,23.42
2022-10-04T21:22:43.007Z,27.20
2022-10-04T21:25:31.505Z,26.88
2022-10-04T21:28:32.931Z,26.63
2022-10-04T21:31:01.552Z,27.17
2022-10-04T21:33:28.713Z,26.30
2022-10-04T21:36:01.023Z,27.27
2022-10-04T21:38:31.252Z,25.02
2022-10-04T21:41:01.031Z,26.75
2022-10-04T21:43:30.870Z,26.40
2022-10-04T21:48:30.229Z,26.27
2022-10-04T21:50:57.518Z,28.85
2022-10-04T21:53:27.139Z,26.05
2022-10-04T21:55:56.594Z,26.08
2022-10-04T21:58:23.619Z,26.42
2022-10-04T22:00:53.238Z,27.00
2022-10-04T22:03:20.450Z,27.15
2022-10-04T22:05:49.749Z,25.88
2022-10-04T22:08:24.165Z,25.73
2022-10-04T22:10:57.617Z,25.63
2022-10-04T22:13:26.756Z,27.02
2022-10-04T22:15:56.334Z,29.42
2022-10-04T22:18:25.879Z,27.50
2022-10-04T22:20:53.244Z,30.00
2022-10-04T22:23:25.667Z,29.75
2022-10-04T22:25:56.141Z,28.65
2022-10-04T22:28:30.116Z,27.42
2022-10-04T22:30:57.535Z,29.00
2022-10-04T22:33:27.387Z,29.58
2022-10-04T22:36:05.382Z,30.50
2022-10-04T22:38:34.865Z,32.05
2022-10-04T22:41:12.934Z,31.05
2022-10-04T22:43:42.719Z,30.98
2022-10-04T22:46:15.819Z,29.95
2022-10-04T22:48:50.037Z,29.58
2022-10-04T22:51:28.099Z,30.13
2022-10-04T22:53:56.195Z,28.67
2022-10-04T22:56:27.924Z,26.80
2022-10-04T22:58:55.418Z,25.73
2022-10-04T23:01:27.788Z,25.52
2022-10-04T23:03:57.713Z,25.50
2022-10-04T23:06:30.189Z,24.75
2022-10-04T23:08:57.972Z,23.48
2022-10-04T23:11:25.118Z,26.83
2022-10-04T23:13:52.600Z,26.95
2022-10-04T23:16:23.326Z,27.40
2022-10-04T23:18:58.154Z,24.25
2022-10-04T23:21:34.570Z,24.63
2022-10-04T23:24:17.295Z,27.80
2022-10-04T23:26:55.477Z,26.67
2022-10-04T23:29:28.015Z,28.75
2022-10-04T23:31:58.154Z,31.45
2022-10-04T23:34:37.040Z,28.77
2022-10-04T23:37:13.207Z,30.83
2022-10-04T23:39:46.018Z,28.08
2022-10-04T23:42:21.554Z,26.23
2022-10-04T23:44:51.210Z,27.38
2022-10-04T23:47:25.258Z,23.42
2022-10-04T23:49:56.924Z,22.17
2022-10-04T23:52:36.311Z,22.77
2022-10-04T23:55:36.278Z,20.47
2022-10-04T23:58:22.631Z,21.90
